ストックホルム/アーランダ の空港の天気 - METARとTAF

ストックホルム・アーランダ空港 ( ESSA / ARN ) - スウェーデン ストックホルム
飛行場実況気象(Metar)
観測時間04/27 06:50 CEST (04/27 04:50 UTC)
風向・風速西南西 5m/s
視程10km以上
天気現象
なし
気温5℃
湿度93%
気圧1004hPa
METARESSA 270450Z 25009KT CAVOK 05/04 Q1004 NOSIG
過去の天気等 Google飛行場航空写真 Wunderground天気予報

過去48時間のMETAR

飛行場予報(TAF)
発表時間: 4/27 01:30 CEST (4/26 23:30 UTC)
予報対象時間: 27日2時 CEST ~ 28日2時 CEST
風向・風速西南西 3m/s
視程10km以上
なし
27日5時 CEST から 確率 40% で
全天の8割程度の雲 雲底高度 240m
27日14時 CEST から 確率 40% で
天気現象しゅう雨
全天の4割程度の積乱雲 雲底高度 910m
TAF ESSA 262330Z 2700/2724 24006KT CAVOK
PROB40 2703/2707 BKN008
PROB40 2712/2718 SHRA SCT030CB